createdAt,value
2022-10-01T00:03:07.774Z,83.12
2022-10-01T00:07:16.802Z,83.09
2022-10-01T00:11:25.634Z,83.02
2022-10-01T00:15:34.059Z,82.90
2022-10-01T00:19:41.607Z,82.16
2022-10-01T00:23:49.624Z,82.60
2022-10-01T00:27:57.443Z,82.81
2022-10-01T00:32:05.160Z,83.23
2022-10-01T00:36:14.068Z,82.93
2022-10-01T00:40:23.996Z,83.08
2022-10-01T00:44:34.621Z,82.85
2022-10-01T00:48:47.949Z,82.68
2022-10-01T00:52:57.768Z,82.76
2022-10-01T00:57:07.516Z,82.58
2022-10-01T01:01:15.974Z,82.25
2022-10-01T01:05:23.805Z,81.85
2022-10-01T01:09:33.205Z,81.54
2022-10-01T01:13:50.327Z,81.61
2022-10-01T01:18:04.362Z,81.18
2022-10-01T01:22:14.416Z,80.93
2022-10-01T01:26:31.288Z,80.58
2022-10-01T01:30:41.382Z,80.37
2022-10-01T01:34:52.919Z,80.02
2022-10-01T01:39:04.607Z,79.42
2022-10-01T01:43:17.682Z,79.74
2022-10-01T01:47:25.971Z,80.30
2022-10-01T01:51:37.642Z,80.05
2022-10-01T01:55:48.110Z,80.06
2022-10-01T01:59:57.345Z,80.21
2022-10-01T02:04:06.845Z,80.13
2022-10-01T02:08:28.186Z,80.20
2022-10-01T02:12:43.917Z,79.70
2022-10-01T02:16:56.192Z,79.49
2022-10-01T02:21:10.111Z,79.58
2022-10-01T02:25:27.210Z,79.61
2022-10-01T02:29:36.651Z,80.02
2022-10-01T02:33:45.590Z,80.24
2022-10-01T02:37:56.551Z,80.80
2022-10-01T02:42:08.342Z,81.18
2022-10-01T02:46:22.047Z,81.35
2022-10-01T02:50:32.154Z,81.64
2022-10-01T02:54:44.043Z,81.68
2022-10-01T02:58:52.654Z,81.60
2022-10-01T03:03:00.008Z,81.79
2022-10-01T03:07:09.048Z,81.55
2022-10-01T03:11:17.359Z,81.31
2022-10-01T03:15:25.745Z,81.36
2022-10-01T03:19:33.465Z,81.31
2022-10-01T03:23:41.956Z,81.27
2022-10-01T03:27:49.797Z,81.22
2022-10-01T03:31:58.247Z,81.16
2022-10-01T03:36:06.119Z,81.14
2022-10-01T03:40:14.865Z,80.79
2022-10-01T03:44:22.367Z,80.70
2022-10-01T03:48:29.815Z,80.47
2022-10-01T03:52:37.269Z,80.31
2022-10-01T03:56:44.965Z,80.31
2022-10-01T04:00:55.429Z,80.53
2022-10-01T04:05:03.023Z,80.91
2022-10-01T04:09:10.880Z,80.93
2022-10-01T04:13:18.690Z,80.78
2022-10-01T04:17:28.513Z,80.94
2022-10-01T04:21:36.957Z,80.72
2022-10-01T04:25:45.180Z,80.65
2022-10-01T04:29:53.673Z,80.61
2022-10-01T04:34:01.118Z,80.40
2022-10-01T04:38:14.859Z,80.36
2022-10-01T04:42:23.817Z,80.43
2022-10-01T04:46:33.285Z,80.63
2022-10-01T04:50:40.819Z,80.48
2022-10-01T04:54:48.287Z,80.76
2022-10-01T04:58:56.403Z,80.29
2022-10-01T05:03:04.102Z,80.29
2022-10-01T05:07:12.073Z,80.66
2022-10-01T05:11:20.183Z,81.11
2022-10-01T05:15:27.962Z,81.68
2022-10-01T05:19:36.198Z,81.61
2022-10-01T05:23:44.541Z,81.90
2022-10-01T05:27:52.868Z,81.89
2022-10-01T05:32:01.860Z,82.29
2022-10-01T05:36:10.600Z,82.36
2022-10-01T05:40:20.065Z,82.65
2022-10-01T05:44:27.889Z,82.60
2022-10-01T05:48:37.160Z,82.86
2022-10-01T05:52:55.885Z,83.02
2022-10-01T05:57:04.158Z,83.07
2022-10-01T06:01:11.748Z,83.23
2022-10-01T06:05:19.446Z,83.31
2022-10-01T06:09:27.351Z,83.47
2022-10-01T06:13:37.184Z,83.67
2022-10-01T06:17:47.164Z,83.79
2022-10-01T06:21:54.657Z,83.83
2022-10-01T06:26:06.517Z,83.84
2022-10-01T06:30:16.423Z,84.17
2022-10-01T06:34:24.040Z,84.44
2022-10-01T06:38:32.373Z,84.83
2022-10-01T06:42:42.429Z,84.91
2022-10-01T06:46:50.873Z,85.00
2022-10-01T06:51:00.033Z,85.16
2022-10-01T06:55:13.081Z,85.63
2022-10-01T06:59:23.142Z,85.52
2022-10-01T07:03:36.929Z,85.77
2022-10-01T07:07:45.593Z,86.18
2022-10-01T07:11:53.307Z,86.23
2022-10-01T07:16:03.818Z,86.16
2022-10-01T07:20:12.537Z,85.31
2022-10-01T07:24:20.347Z,84.83
2022-10-01T07:28:28.511Z,84.22
2022-10-01T07:32:37.821Z,83.93
2022-10-01T07:36:45.343Z,83.53
2022-10-01T07:40:56.564Z,83.59
2022-10-01T07:45:06.975Z,83.29
2022-10-01T07:49:17.364Z,82.88
2022-10-01T07:53:27.768Z,82.35
2022-10-01T07:57:35.542Z,81.73
2022-10-01T08:01:43.702Z,81.47
2022-10-01T08:05:53.297Z,81.49
2022-10-01T08:10:00.884Z,81.32
2022-10-01T08:14:15.146Z,81.01
2022-10-01T08:18:23.275Z,80.65
2022-10-01T08:22:31.516Z,80.41
2022-10-01T08:26:39.045Z,80.38
2022-10-01T08:30:47.023Z,80.07
2022-10-01T08:35:00.149Z,79.76
2022-10-01T08:39:10.171Z,79.85
2022-10-01T08:43:29.715Z,79.70
2022-10-01T08:47:41.407Z,79.26
2022-10-01T08:51:52.573Z,78.78
2022-10-01T08:56:05.522Z,78.40
2022-10-01T09:00:19.564Z,78.30
2022-10-01T09:04:27.252Z,78.27
2022-10-01T09:08:45.962Z,77.98
2022-10-01T09:13:04.624Z,77.67
2022-10-01T09:17:20.431Z,77.62
2022-10-01T09:21:34.520Z,76.91
2022-10-01T09:25:43.190Z,76.26
2022-10-01T09:29:53.198Z,75.10
2022-10-01T09:34:04.150Z,75.24
2022-10-01T09:38:18.771Z,74.70
2022-10-01T09:42:29.533Z,74.53
2022-10-01T09:46:40.373Z,74.47
2022-10-01T09:50:54.743Z,74.36
2022-10-01T09:55:05.442Z,73.83
2022-10-01T09:59:18.546Z,73.60
2022-10-01T10:03:30.993Z,72.99
2022-10-01T10:07:43.197Z,72.20
2022-10-01T10:11:51.425Z,71.62
2022-10-01T10:16:00.247Z,71.29
2022-10-01T10:20:15.336Z,71.15
2022-10-01T10:24:28.098Z,70.68
2022-10-01T10:28:46.064Z,70.39
2022-10-01T10:32:54.615Z,69.46
2022-10-01T10:37:05.503Z,68.13
2022-10-01T10:41:27.036Z,66.66
2022-10-01T10:45:38.979Z,65.76
2022-10-01T10:49:50.406Z,64.75
2022-10-01T10:54:01.011Z,64.03
2022-10-01T10:58:16.106Z,63.51
2022-10-01T11:02:25.605Z,63.12
2022-10-01T11:06:33.589Z,63.11
2022-10-01T11:10:46.941Z,63.05
2022-10-01T11:15:07.223Z,62.78
2022-10-01T11:19:41.988Z,62.50
2022-10-01T11:24:10.582Z,62.40
2022-10-01T11:28:33.707Z,62.07
2022-10-01T11:32:46.226Z,62.28
2022-10-01T11:37:01.391Z,61.77
2022-10-01T11:41:19.420Z,62.14
2022-10-01T11:45:29.051Z,61.35
2022-10-01T11:49:45.414Z,60.95
2022-10-01T11:53:55.461Z,61.46
2022-10-01T11:58:23.885Z,61.42
2022-10-01T12:02:36.709Z,61.52
2022-10-01T12:06:50.621Z,60.97
2022-10-01T12:11:04.417Z,60.84
2022-10-01T12:15:18.761Z,60.57
2022-10-01T12:19:28.283Z,60.60
2022-10-01T12:23:45.754Z,61.08
2022-10-01T12:28:02.507Z,60.56
2022-10-01T12:32:18.197Z,60.53
2022-10-01T12:36:31.331Z,60.78
2022-10-01T12:40:45.656Z,60.97
2022-10-01T12:45:03.573Z,61.17
2022-10-01T12:49:22.917Z,60.90
2022-10-01T12:53:36.848Z,60.80
2022-10-01T12:57:52.458Z,60.49
2022-10-01T13:02:16.623Z,60.05
2022-10-01T13:06:35.045Z,60.14
2022-10-01T13:10:52.730Z,59.86
2022-10-01T13:15:01.363Z,60.01
2022-10-01T13:19:14.735Z,60.26
2022-10-01T13:23:33.719Z,60.47
2022-10-01T13:27:48.212Z,60.04
2022-10-01T13:31:58.376Z,60.09
2022-10-01T13:36:07.884Z,60.51
2022-10-01T13:40:28.488Z,60.59
2022-10-01T13:44:37.319Z,60.84
2022-10-01T13:48:50.794Z,61.14
2022-10-01T13:53:09.359Z,61.23
2022-10-01T13:57:31.884Z,61.35
2022-10-01T14:01:43.831Z,60.72
2022-10-01T14:05:56.956Z,60.63
2022-10-01T14:10:05.405Z,61.02
2022-10-01T14:14:38.613Z,61.35
2022-10-01T14:18:48.361Z,61.55
2022-10-01T14:23:08.865Z,61.42
2022-10-01T14:27:21.604Z,62.19
2022-10-01T14:31:40.109Z,63.05
2022-10-01T14:35:50.575Z,64.29
2022-10-01T14:40:16.903Z,65.40
2022-10-01T14:44:28.355Z,66.43
2022-10-01T14:48:38.882Z,66.17
2022-10-01T14:52:49.069Z,66.30
2022-10-01T14:56:57.045Z,65.51
2022-10-01T15:01:05.112Z,65.30
2022-10-01T15:05:23.640Z,65.36
2022-10-01T15:09:35.948Z,66.04
2022-10-01T15:13:45.453Z,67.24
2022-10-01T15:17:54.177Z,67.40
2022-10-01T15:22:03.781Z,67.55
2022-10-01T15:26:13.627Z,67.72
2022-10-01T15:30:22.275Z,67.26
2022-10-01T15:34:30.635Z,67.27
2022-10-01T15:38:39.324Z,68.06
2022-10-01T15:43:14.580Z,68.26
2022-10-01T15:47:35.405Z,68.73
2022-10-01T15:52:11.291Z,69.27
2022-10-01T15:56:21.494Z,69.71
2022-10-01T16:00:31.741Z,70.06
2022-10-01T16:04:39.516Z,70.23
2022-10-01T16:09:02.277Z,70.53
2022-10-01T16:13:30.521Z,70.67
2022-10-01T16:17:40.254Z,70.64
2022-10-01T16:22:21.355Z,70.80
2022-10-01T16:26:42.738Z,71.04
2022-10-01T16:30:52.929Z,70.89
2022-10-01T16:35:19.709Z,71.21
2022-10-01T16:39:27.493Z,71.31
2022-10-01T16:43:35.655Z,71.48
2022-10-01T16:47:43.165Z,71.71
2022-10-01T16:51:56.644Z,71.95
2022-10-01T16:56:04.842Z,71.77
2022-10-01T17:00:16.966Z,71.91
2022-10-01T17:04:30.361Z,71.98
2022-10-01T17:08:39.466Z,72.19
2022-10-01T17:12:48.151Z,72.40
2022-10-01T17:16:55.861Z,72.37
2022-10-01T17:21:05.652Z,72.31
2022-10-01T17:25:17.861Z,72.26
2022-10-01T17:29:26.846Z,72.42
2022-10-01T17:33:35.945Z,72.50
2022-10-01T17:37:45.858Z,72.62
2022-10-01T17:41:53.648Z,72.72
2022-10-01T17:46:02.486Z,72.78
2022-10-01T17:50:11.868Z,72.89
2022-10-01T17:54:20.205Z,72.81
2022-10-01T17:58:29.611Z,73.02
2022-10-01T18:02:42.147Z,73.13
2022-10-01T18:06:52.767Z,73.06
2022-10-01T18:11:09.085Z,73.13
2022-10-01T18:15:21.036Z,73.05
2022-10-01T18:24:04.229Z,73.61
2022-10-01T18:28:12.251Z,73.70
2022-10-01T18:32:23.623Z,73.85
2022-10-01T18:36:51.981Z,73.94
2022-10-01T18:41:04.119Z,74.47
2022-10-01T18:45:18.685Z,74.80
2022-10-01T18:49:52.415Z,75.19
2022-10-01T18:54:12.257Z,75.55
2022-10-01T18:58:36.516Z,75.68
2022-10-01T19:03:04.913Z,75.78
2022-10-01T19:07:23.112Z,75.91
2022-10-01T19:11:35.395Z,76.21
2022-10-01T19:15:52.187Z,76.33
2022-10-01T19:20:12.207Z,76.56
2022-10-01T19:24:42.228Z,76.67
2022-10-01T19:29:04.538Z,76.42
2022-10-01T19:33:13.687Z,76.54
2022-10-01T19:37:27.928Z,76.68
2022-10-01T19:41:41.361Z,76.70
2022-10-01T19:45:54.388Z,76.65
2022-10-01T19:50:07.261Z,76.75
2022-10-01T19:54:17.524Z,76.70
2022-10-01T19:58:24.863Z,76.61
2022-10-01T20:02:38.285Z,76.52
2022-10-01T20:06:47.825Z,76.53
2022-10-01T20:10:58.548Z,76.41
2022-10-01T20:15:11.885Z,76.56
2022-10-01T20:19:28.384Z,76.51
2022-10-01T20:23:43.664Z,76.32
2022-10-01T20:27:56.288Z,76.56
2022-10-01T20:32:08.957Z,76.38
2022-10-01T20:36:20.799Z,76.30
2022-10-01T20:40:32.946Z,76.24
2022-10-01T20:44:41.633Z,76.18
2022-10-01T20:48:53.986Z,76.12
2022-10-01T20:53:14.406Z,76.19
2022-10-01T20:57:30.711Z,76.12
2022-10-01T21:01:46.331Z,76.24
2022-10-01T21:05:55.986Z,76.29
2022-10-01T21:10:05.427Z,76.27
2022-10-01T21:14:18.409Z,76.34
2022-10-01T21:18:35.626Z,76.49
2022-10-01T21:22:52.650Z,76.60
2022-10-01T21:27:08.121Z,76.57
2022-10-01T21:31:25.477Z,76.76
2022-10-01T21:35:34.860Z,76.63
2022-10-01T21:39:48.775Z,76.71
2022-10-01T21:44:15.672Z,76.81
2022-10-01T21:48:31.765Z,76.68
2022-10-01T21:52:45.397Z,76.53
2022-10-01T21:57:02.288Z,76.67
2022-10-01T22:01:18.724Z,76.55
2022-10-01T22:05:33.518Z,76.66
2022-10-01T22:09:44.934Z,76.68
2022-10-01T22:13:55.301Z,76.63
2022-10-01T22:18:04.258Z,76.66
2022-10-01T22:22:14.593Z,76.72
2022-10-01T22:26:24.811Z,76.82
2022-10-01T22:30:36.092Z,76.94
2022-10-01T22:34:46.775Z,77.01
2022-10-01T22:38:57.607Z,77.11
2022-10-01T22:43:09.291Z,77.01
2022-10-01T22:47:58.780Z,77.10
2022-10-01T22:52:14.683Z,77.10
2022-10-01T22:56:28.192Z,77.00
2022-10-01T23:00:40.543Z,77.02
2022-10-01T23:04:57.771Z,76.95
2022-10-01T23:09:07.511Z,76.71
2022-10-01T23:13:21.120Z,76.54
2022-10-01T23:17:33.411Z,76.45
2022-10-01T23:21:47.734Z,76.26
2022-10-01T23:26:10.170Z,76.27
2022-10-01T23:30:19.078Z,76.27
2022-10-01T23:34:33.561Z,76.07
2022-10-01T23:39:02.957Z,75.88
2022-10-01T23:43:13.462Z,75.86
2022-10-01T23:47:24.155Z,75.62
2022-10-01T23:51:34.181Z,75.48
2022-10-01T23:56:06.924Z,75.67
